Time;durP1;ratioP1;P1;durP2;ratioP2;P2;SDS_P1;SDS_P2;PMS_P1;PMS_P2;Temp;Humidity;BMP_temperature;BMP_pressure;BME280_temperature;BME280_humidity;BME280_pressure;Samples;Min_cycle;Max_cycle;Signal;HPM_P1;HPM_P2
2023/09/09 00:00:46;;;;;;;22.85;13.52;;;16.10;99.90;;;;;;5089659;28;20048;-69
2023/09/09 00:03:12;;;;;;;23.10;13.88;;;16.00;99.90;;;;;;5087204;28;20035;-70
2023/09/09 00:05:38;;;;;;;26.75;13.68;;;15.90;99.90;;;;;;5089564;28;20468;-69
2023/09/09 00:08:04;;;;;;;24.40;14.60;;;15.90;99.90;;;;;;5087980;28;20036;-69
2023/09/09 00:10:30;;;;;;;25.70;14.60;;;15.90;99.90;;;;;;5085001;28;20043;-69
2023/09/09 00:12:56;;;;;;;24.10;14.05;;;15.80;99.90;;;;;;5088171;28;20380;-69
2023/09/09 00:15:22;;;;;;;25.48;15.07;;;15.80;99.90;;;;;;5085857;28;20023;-69
2023/09/09 00:17:48;;;;;;;23.92;14.25;;;15.80;99.90;;;;;;5087791;28;20024;-69
2023/09/09 00:20:14;;;;;;;24.75;14.57;;;15.70;99.90;;;;;;5086531;28;20400;-69
2023/09/09 00:22:40;;;;;;;24.40;14.50;;;15.70;99.90;;;;;;5086725;28;20035;-69
2023/09/09 00:25:06;;;;;;;21.58;13.38;;;15.70;99.90;;;;;;5086313;28;20032;-69
2023/09/09 00:27:32;;;;;;;22.13;13.68;;;15.60;99.90;;;;;;5087400;28;20036;-68
2023/09/09 00:29:57;;;;;;;24.90;14.65;;;15.60;99.90;;;;;;5084396;28;20038;-71
2023/09/09 00:32:23;;;;;;;23.38;13.73;;;15.50;99.90;;;;;;5086490;28;20032;-71
2023/09/09 00:34:49;;;;;;;25.27;14.23;;;15.50;99.90;;;;;;5087672;28;20484;-70
2023/09/09 00:37:14;;;;;;;28.33;15.43;;;15.50;99.90;;;;;;5084805;28;20513;-69
2023/09/09 00:39:40;;;;;;;21.83;14.30;;;15.50;99.90;;;;;;5087763;28;20036;-69
2023/09/09 00:42:06;;;;;;;27.42;15.00;;;15.50;99.90;;;;;;5084522;28;20071;-69
2023/09/09 00:44:31;;;;;;;28.23;14.52;;;15.40;99.90;;;;;;5087690;28;20054;-69
2023/09/09 00:46:58;;;;;;;24.25;14.40;;;15.40;99.90;;;;;;5086760;28;20039;-69
2023/09/09 00:49:24;;;;;;;23.77;14.73;;;15.40;99.90;;;;;;5083607;28;20028;-69
2023/09/09 00:51:50;;;;;;;23.73;13.45;;;15.30;99.90;;;;;;5085525;28;20032;-69
2023/09/09 00:54:15;;;;;;;23.05;13.68;;;15.30;99.90;;;;;;5087022;28;20020;-69
2023/09/09 00:56:42;;;;;;;23.75;14.48;;;15.30;99.90;;;;;;5087147;28;20058;-69
2023/09/09 00:59:10;;;;;;;22.55;12.85;;;15.30;99.90;;;;;;5086605;28;20494;-69
2023/09/09 01:01:36;;;;;;;23.45;14.20;;;15.20;99.90;;;;;;5081625;28;20066;-69
2023/09/09 01:04:03;;;;;;;25.65;14.93;;;15.20;99.90;;;;;;5083971;28;20705;-71
2023/09/09 01:06:28;;;;;;;21.85;14.50;;;15.20;99.90;;;;;;5086479;28;20028;-69
2023/09/09 01:08:54;;;;;;;22.77;14.07;;;15.20;99.90;;;;;;5089964;28;20032;-69
2023/09/09 01:11:20;;;;;;;25.50;13.93;;;15.20;99.90;;;;;;5086878;28;20700;-69
2023/09/09 01:13:45;;;;;;;23.35;13.77;;;15.20;99.90;;;;;;5091538;28;20029;-69
2023/09/09 01:16:12;;;;;;;24.05;13.77;;;15.20;99.90;;;;;;5087813;28;20460;-70
2023/09/09 01:18:38;;;;;;;22.73;14.25;;;15.30;99.90;;;;;;5092461;28;20028;-69
2023/09/09 01:21:10;;;;;;;26.40;13.20;;;15.20;99.90;;;;;;5091973;28;20514;-70
2023/09/09 01:23:36;;;;;;;23.02;13.20;;;15.10;99.90;;;;;;5091531;28;20105;-68
2023/09/09 01:26:02;;;;;;;25.08;14.63;;;15.00;99.90;;;;;;5090618;28;20020;-70
2023/09/09 01:28:28;;;;;;;24.83;14.38;;;15.00;99.90;;;;;;5073873;28;20071;-69
2023/09/09 01:30:54;;;;;;;22.75;13.27;;;14.90;99.90;;;;;;5089688;28;20067;-68
2023/09/09 01:33:20;;;;;;;23.40;13.85;;;15.00;99.90;;;;;;5090732;28;20028;-69
2023/09/09 01:35:48;;;;;;;23.98;14.43;;;14.90;99.90;;;;;;5090563;28;20085;-69
2023/09/09 01:38:14;;;;;;;30.02;14.35;;;14.90;99.90;;;;;;5091238;28;20125;-69
2023/09/09 01:40:40;;;;;;;25.92;14.23;;;14.90;99.90;;;;;;5091791;28;20036;-69
2023/09/09 01:43:05;;;;;;;28.80;14.23;;;14.90;99.90;;;;;;5088114;28;20119;-69
2023/09/09 01:45:31;;;;;;;24.60;15.13;;;14.90;99.90;;;;;;5072484;28;20052;-70
2023/09/09 01:47:58;;;;;;;23.90;14.02;;;14.90;99.90;;;;;;5088097;28;20661;-69
2023/09/09 01:50:23;;;;;;;23.30;14.32;;;14.80;99.90;;;;;;5088475;28;20225;-69
2023/09/09 01:52:49;;;;;;;31.38;14.98;;;14.80;99.90;;;;;;5090231;28;20032;-69
2023/09/09 01:55:15;;;;;;;22.75;14.63;;;14.70;99.90;;;;;;5090948;28;20031;-69
2023/09/09 01:57:40;;;;;;;25.23;15.18;;;14.70;99.90;;;;;;5084705;28;20055;-69
2023/09/09 02:00:07;;;;;;;25.52;15.43;;;14.70;99.90;;;;;;5085740;28;20035;-71
2023/09/09 02:02:33;;;;;;;22.92;13.98;;;14.70;99.90;;;;;;5091661;28;20059;-69
2023/09/09 02:04:59;;;;;;;26.95;14.77;;;14.70;99.90;;;;;;5070156;28;20464;-69
2023/09/09 02:07:24;;;;;;;23.77;14.35;;;14.80;99.90;;;;;;5088945;28;20025;-69
2023/09/09 02:09:50;;;;;;;26.75;15.48;;;14.80;99.90;;;;;;5090008;28;20027;-69
2023/09/09 02:12:15;;;;;;;22.70;14.13;;;14.80;99.90;;;;;;5088736;28;20028;-69
2023/09/09 02:14:41;;;;;;;24.88;14.68;;;14.70;99.90;;;;;;5089472;28;20027;-69
2023/09/09 02:17:07;;;;;;;23.98;14.30;;;14.70;99.90;;;;;;5081408;28;20050;-71
2023/09/09 02:19:33;;;;;;;23.60;14.02;;;14.70;99.90;;;;;;5057666;28;20416;-69
2023/09/09 02:21:59;;;;;;;24.98;13.07;;;14.60;99.90;;;;;;5082452;28;20099;-70
2023/09/09 02:24:24;;;;;;;20.33;12.88;;;14.70;99.90;;;;;;5071065;28;20692;-70
2023/09/09 02:26:50;;;;;;;23.70;13.60;;;14.60;99.90;;;;;;5087693;28;20118;-70
2023/09/09 02:29:15;;;;;;;22.38;12.38;;;14.60;99.90;;;;;;5089344;28;20028;-70
2023/09/09 02:31:41;;;;;;;22.50;12.68;;;14.60;99.90;;;;;;5087744;28;20105;-70
2023/09/09 02:34:07;;;;;;;22.92;12.52;;;14.60;99.90;;;;;;5070392;28;20087;-71
2023/09/09 02:36:32;;;;;;;22.27;12.63;;;14.50;99.90;;;;;;5084496;28;20031;-70
2023/09/09 02:38:58;;;;;;;22.08;11.77;;;14.50;99.90;;;;;;5091135;28;20098;-70
2023/09/09 02:41:24;;;;;;;22.75;12.85;;;14.50;99.90;;;;;;5082474;28;20040;-70
2023/09/09 02:43:50;;;;;;;23.42;13.93;;;14.40;99.90;;;;;;5087242;28;20497;-70
2023/09/09 02:46:15;;;;;;;25.08;13.75;;;14.40;99.90;;;;;;5085165;28;20075;-70
2023/09/09 02:48:41;;;;;;;25.92;13.75;;;14.40;99.90;;;;;;5088443;28;20052;-71
2023/09/09 02:51:06;;;;;;;24.27;13.88;;;14.40;99.90;;;;;;5081843;28;20032;-70
2023/09/09 02:53:32;;;;;;;22.27;12.82;;;14.30;99.90;;;;;;5090101;28;20431;-69
2023/09/09 02:55:58;;;;;;;22.17;12.73;;;14.30;99.90;;;;;;5075850;28;20461;-69
2023/09/09 02:58:23;;;;;;;21.63;13.43;;;14.30;99.90;;;;;;5087822;28;20146;-71
2023/09/09 03:00:49;;;;;;;21.02;13.18;;;14.30;99.90;;;;;;5086350;28;20120;-70
2023/09/09 03:03:20;;;;;;;24.88;12.85;;;14.30;99.90;;;;;;5089731;28;20456;-69
2023/09/09 03:05:45;;;;;;;23.50;12.85;;;14.30;99.90;;;;;;5089795;28;20475;-70
2023/09/09 03:08:11;;;;;;;19.08;11.88;;;14.30;99.90;;;;;;5088419;28;20071;-71
2023/09/09 03:10:37;;;;;;;19.05;12.48;;;14.20;99.90;;;;;;5090250;28;20051;-70
2023/09/09 03:13:03;;;;;;;24.58;12.80;;;14.20;99.90;;;;;;5090157;28;20069;-70
2023/09/09 03:15:29;;;;;;;19.90;12.02;;;14.10;99.90;;;;;;5087814;28;20031;-70
2023/09/09 03:17:55;;;;;;;22.52;12.32;;;14.10;99.90;;;;;;5089870;28;20024;-69
2023/09/09 03:20:21;;;;;;;24.70;12.77;;;14.10;99.90;;;;;;5088083;28;20553;-69
2023/09/09 03:22:46;;;;;;;20.30;12.90;;;14.00;99.90;;;;;;5090132;28;20523;-69
2023/09/09 03:25:12;;;;;;;19.90;12.75;;;14.00;99.90;;;;;;5089248;28;20082;-70
2023/09/09 03:27:38;;;;;;;19.25;12.20;;;14.00;99.90;;;;;;5087465;28;20039;-69
2023/09/09 03:30:04;;;;;;;21.00;12.20;;;14.00;99.90;;;;;;5087226;28;20711;-69
2023/09/09 03:32:30;;;;;;;20.50;12.65;;;14.00;99.90;;;;;;5084281;28;20125;-69
2023/09/09 03:34:55;;;;;;;21.45;13.00;;;14.00;99.90;;;;;;5087491;28;20119;-69
2023/09/09 03:37:21;;;;;;;21.30;12.27;;;14.00;99.90;;;;;;5084927;28;20110;-70
2023/09/09 03:39:48;;;;;;;19.23;11.27;;;14.00;99.90;;;;;;5083442;28;20396;-70
2023/09/09 03:42:13;;;;;;;20.35;11.93;;;14.00;99.90;;;;;;5084604;28;20028;-71
2023/09/09 03:44:40;;;;;;;20.88;11.10;;;13.90;99.90;;;;;;5087410;28;20090;-70
2023/09/09 03:47:05;;;;;;;22.23;11.60;;;14.00;99.90;;;;;;5089241;28;20132;-69
2023/09/09 03:49:31;;;;;;;22.92;12.10;;;14.00;99.90;;;;;;5082506;28;20190;-69
2023/09/09 03:51:57;;;;;;;19.38;11.57;;;13.90;99.90;;;;;;5069292;28;20081;-68
2023/09/09 03:54:23;;;;;;;19.60;11.80;;;13.80;99.90;;;;;;5081360;28;20077;-69
2023/09/09 03:56:49;;;;;;;18.10;10.27;;;13.90;99.90;;;;;;5089226;28;20735;-69
2023/09/09 03:59:15;;;;;;;19.73;11.00;;;13.80;99.90;;;;;;5087215;28;20036;-71
2023/09/09 04:01:40;;;;;;;19.25;11.77;;;13.80;99.90;;;;;;5087021;28;20798;-70
2023/09/09 04:04:06;;;;;;;18.02;11.63;;;13.80;99.90;;;;;;5085837;28;20074;-70
2023/09/09 04:06:32;;;;;;;16.38;10.48;;;13.80;99.90;;;;;;5080117;28;20024;-69
2023/09/09 04:08:58;;;;;;;18.45;10.77;;;13.80;99.90;;;;;;5086450;28;20483;-70
2023/09/09 04:11:24;;;;;;;18.80;11.00;;;13.80;99.90;;;;;;5089134;28;20502;-69
2023/09/09 04:13:49;;;;;;;18.10;11.43;;;13.80;99.90;;;;;;5086696;28;20090;-69
2023/09/09 04:16:15;;;;;;;19.83;12.02;;;13.90;99.90;;;;;;5084694;28;20031;-71
2023/09/09 04:18:41;;;;;;;25.08;13.23;;;13.90;99.90;;;;;;5088051;28;20074;-69
2023/09/09 04:21:06;;;;;;;23.45;13.40;;;13.90;99.90;;;;;;5082150;28;20032;-68
2023/09/09 04:23:32;;;;;;;21.38;12.95;;;13.80;99.90;;;;;;5082274;28;20020;-70
2023/09/09 04:25:58;;;;;;;21.13;12.35;;;13.70;99.90;;;;;;5084225;28;20104;-69
2023/09/09 04:28:26;;;;;;;21.85;12.48;;;13.70;99.90;;;;;;5088135;28;20075;-70
2023/09/09 04:30:52;;;;;;;21.95;12.45;;;13.70;99.90;;;;;;5084637;28;20081;-70
2023/09/09 04:33:17;;;;;;;26.40;13.05;;;13.70;99.90;;;;;;5086516;28;20032;-70
2023/09/09 04:35:43;;;;;;;23.35;13.82;;;13.60;99.90;;;;;;5087715;28;20024;-71
2023/09/09 04:38:09;;;;;;;22.67;13.18;;;13.60;99.90;;;;;;5088768;28;20032;-69
2023/09/09 04:40:38;;;;;;;21.95;13.10;;;13.70;99.90;;;;;;5087325;28;20032;-69
2023/09/09 04:43:03;;;;;;;21.50;12.27;;;13.60;99.90;;;;;;5086145;28;20024;-72
2023/09/09 04:45:29;;;;;;;19.45;11.70;;;13.60;99.90;;;;;;5080771;28;20384;-70
2023/09/09 04:47:55;;;;;;;18.27;10.65;;;13.60;99.90;;;;;;5082968;28;20404;-71
2023/09/09 04:50:21;;;;;;;18.52;11.35;;;13.50;99.90;;;;;;5081970;28;20115;-71
2023/09/09 04:52:47;;;;;;;21.13;12.45;;;13.40;99.90;;;;;;5068712;28;20032;-71
2023/09/09 04:55:13;;;;;;;24.52;13.35;;;13.50;99.90;;;;;;5083938;28;20462;-71
2023/09/09 04:57:40;;;;;;;21.60;13.25;;;13.50;99.90;;;;;;5087488;28;20032;-71
2023/09/09 05:00:07;;;;;;;20.65;11.88;;;13.60;99.90;;;;;;5086219;28;20029;-71
2023/09/09 05:02:33;;;;;;;21.98;11.55;;;13.60;99.90;;;;;;5093786;28;20526;-70
2023/09/09 05:04:59;;;;;;;18.52;11.07;;;13.50;99.90;;;;;;5108915;28;20035;-70
2023/09/09 05:07:25;;;;;;;21.45;11.68;;;13.50;99.90;;;;;;5085111;28;20035;-71
2023/09/09 05:09:50;;;;;;;19.25;11.00;;;13.40;99.90;;;;;;5088088;28;20141;-70
2023/09/09 05:12:16;;;;;;;18.33;11.25;;;13.40;99.90;;;;;;5086966;28;20046;-71
2023/09/09 05:14:42;;;;;;;20.05;11.65;;;13.40;99.90;;;;;;5084270;28;20031;-70
2023/09/09 05:17:08;;;;;;;21.55;13.18;;;13.50;99.90;;;;;;5081274;28;20468;-69
2023/09/09 05:19:33;;;;;;;21.13;13.27;;;13.60;99.90;;;;;;5083027;28;20039;-71
2023/09/09 05:21:59;;;;;;;19.67;11.88;;;13.70;99.90;;;;;;5083860;28;20032;-70
2023/09/09 05:24:25;;;;;;;19.10;11.95;;;13.80;99.90;;;;;;5083885;28;20039;-70
2023/09/09 05:26:50;;;;;;;18.83;11.15;;;13.70;99.90;;;;;;5080498;28;20095;-71
2023/09/09 05:29:16;;;;;;;20.48;11.68;;;13.80;99.90;;;;;;5082859;28;20020;-71
2023/09/09 05:31:41;;;;;;;20.52;12.13;;;13.80;99.90;;;;;;5075529;28;20689;-70
2023/09/09 05:34:07;;;;;;;24.40;11.85;;;13.70;99.90;;;;;;5087877;28;20031;-70
2023/09/09 05:36:33;;;;;;;18.75;11.63;;;13.70;99.90;;;;;;5084707;28;20430;-70
2023/09/09 05:38:59;;;;;;;19.45;11.82;;;13.70;99.90;;;;;;5087245;28;20032;-71
2023/09/09 05:41:29;;;;;;;20.20;12.23;;;13.90;99.90;;;;;;5067481;28;20036;-71
2023/09/09 05:43:55;;;;;;;22.45;13.68;;;14.00;99.90;;;;;;5088231;28;20111;-70
2023/09/09 05:46:20;;;;;;;23.95;14.27;;;14.20;99.90;;;;;;5086141;28;20166;-71
2023/09/09 05:48:46;;;;;;;23.35;14.13;;;14.30;99.90;;;;;;5087536;28;20056;-70
2023/09/09 05:51:11;;;;;;;26.02;14.20;;;14.40;99.90;;;;;;5086190;28;20494;-71
2023/09/09 05:53:37;;;;;;;23.83;13.45;;;14.50;99.90;;;;;;5085749;28;20228;-71
2023/09/09 05:56:03;;;;;;;21.58;13.13;;;14.50;99.90;;;;;;5096801;28;20157;-70
2023/09/09 05:58:28;;;;;;;20.00;12.57;;;14.40;99.90;;;;;;5086011;28;20319;-71
2023/09/09 06:00:54;;;;;;;19.15;12.13;;;14.30;99.90;;;;;;5089203;28;20040;-69
2023/09/09 06:03:20;;;;;;;21.02;11.52;;;14.30;99.90;;;;;;5088757;28;20032;-70
2023/09/09 06:05:46;;;;;;;22.13;13.55;;;14.30;99.90;;;;;;5090809;28;20115;-69
2023/09/09 06:08:12;;;;;;;24.17;13.93;;;14.40;99.90;;;;;;5074186;28;20028;-71
2023/09/09 06:10:38;;;;;;;22.08;13.35;;;14.50;99.90;;;;;;5081616;28;20042;-70
2023/09/09 06:13:04;;;;;;;22.63;13.05;;;14.50;99.90;;;;;;5087893;28;20039;-70
2023/09/09 06:15:29;;;;;;;22.85;13.82;;;14.60;99.90;;;;;;5088793;28;20088;-71
2023/09/09 06:17:57;;;;;;;21.90;13.50;;;14.70;99.90;;;;;;5091488;28;20028;-71
2023/09/09 06:20:22;;;;;;;21.98;13.68;;;14.70;99.90;;;;;;5089181;28;20047;-70
2023/09/09 06:22:48;;;;;;;21.33;14.40;;;14.70;99.90;;;;;;5090453;28;20032;-69
2023/09/09 06:25:14;;;;;;;23.08;14.02;;;14.70;99.90;;;;;;5091204;28;20028;-71
2023/09/09 06:27:40;;;;;;;21.80;12.98;;;14.70;99.90;;;;;;5090465;28;20349;-70
2023/09/09 06:30:06;;;;;;;25.50;13.48;;;14.70;99.90;;;;;;5089731;28;20503;-69
2023/09/09 06:32:32;;;;;;;25.38;13.32;;;14.80;99.90;;;;;;5088995;28;20488;-69
2023/09/09 06:34:57;;;;;;;21.17;13.70;;;15.00;99.90;;;;;;5090354;28;20028;-71
2023/09/09 06:37:23;;;;;;;25.10;15.20;;;15.10;99.90;;;;;;5090362;28;20020;-69
2023/09/09 06:39:49;;;;;;;28.73;14.40;;;15.30;99.90;;;;;;5090624;28;20516;-70
2023/09/09 06:42:15;;;;;;;25.05;15.00;;;15.40;99.90;;;;;;5091367;28;20086;-70
2023/09/09 06:44:40;;;;;;;24.40;14.00;;;15.70;99.90;;;;;;5087684;28;20174;-70
2023/09/09 06:47:06;;;;;;;25.08;15.15;;;15.80;99.90;;;;;;5089659;28;20480;-70
2023/09/09 06:49:34;;;;;;;21.70;13.95;;;15.90;99.90;;;;;;5088772;28;20034;-70
2023/09/09 06:52:00;;;;;;;27.13;14.27;;;16.00;99.90;;;;;;5090785;28;20043;-71
2023/09/09 06:54:26;;;;;;;21.83;13.82;;;16.10;99.90;;;;;;5089937;28;20073;-70
2023/09/09 06:56:52;;;;;;;25.65;14.70;;;16.20;99.90;;;;;;5072405;28;20036;-72
2023/09/09 06:59:17;;;;;;;24.10;15.32;;;16.40;99.90;;;;;;5089070;28;20020;-70
2023/09/09 07:01:43;;;;;;;26.92;15.23;;;16.50;99.90;;;;;;5088667;28;20032;-69
2023/09/09 07:04:08;;;;;;;24.08;15.57;;;16.60;99.90;;;;;;5090126;28;20672;-70
2023/09/09 07:06:34;;;;;;;23.02;15.27;;;16.70;99.90;;;;;;5085370;28;20028;-71
2023/09/09 07:09:00;;;;;;;25.48;15.77;;;16.80;99.90;;;;;;5086142;28;20036;-70
2023/09/09 07:11:25;;;;;;;28.17;15.50;;;16.90;99.90;;;;;;5086105;28;20024;-70
2023/09/09 07:13:51;;;;;;;24.60;14.93;;;16.90;99.90;;;;;;5090201;28;20032;-70
2023/09/09 07:16:17;;;;;;;28.48;16.70;;;17.00;99.90;;;;;;5090366;28;20100;-70
2023/09/09 07:18:42;;;;;;;29.15;16.05;;;17.30;99.90;;;;;;5089349;28;20674;-69
2023/09/09 07:21:08;;;;;;;27.23;17.05;;;17.40;99.90;;;;;;5090114;28;20036;-70
2023/09/09 07:23:33;;;;;;;25.23;15.68;;;17.60;99.90;;;;;;5089405;28;20028;-71
2023/09/09 07:25:59;;;;;;;25.92;16.52;;;17.80;99.90;;;;;;5090195;28;20028;-70
2023/09/09 07:28:25;;;;;;;27.67;17.65;;;18.00;99.90;;;;;;5089239;28;20050;-70
2023/09/09 07:30:51;;;;;;;27.30;16.98;;;18.10;99.90;;;;;;5087094;28;20147;-70
2023/09/09 07:33:18;;;;;;;29.67;16.77;;;18.30;99.90;;;;;;5071625;28;20028;-70
2023/09/09 07:35:44;;;;;;;28.15;16.13;;;18.40;99.90;;;;;;5083654;28;20027;-70
2023/09/09 07:38:10;;;;;;;28.00;17.17;;;18.60;99.90;;;;;;5088526;28;20028;-70
2023/09/09 07:40:36;;;;;;;28.30;17.55;;;18.70;99.90;;;;;;5086478;28;20558;-70
2023/09/09 07:43:02;;;;;;;35.63;17.88;;;18.80;99.90;;;;;;5085136;28;20020;-70
2023/09/09 07:45:28;;;;;;;26.60;16.35;;;18.90;99.90;;;;;;5085325;28;20448;-69
2023/09/09 07:47:54;;;;;;;29.27;17.35;;;19.10;99.90;;;;;;5093715;28;20058;-72
2023/09/09 07:50:20;;;;;;;27.63;16.83;;;19.30;99.90;;;;;;5077507;28;20048;-70
2023/09/09 07:52:46;;;;;;;27.95;16.90;;;19.40;99.90;;;;;;5094407;28;20095;-69
2023/09/09 07:55:12;;;;;;;37.70;16.75;;;19.60;99.90;;;;;;5089675;28;20024;-70
2023/09/09 07:57:38;;;;;;;27.88;18.27;;;19.80;99.90;;;;;;5086370;28;20032;-71
2023/09/09 08:00:07;;;;;;;29.23;17.42;;;20.00;99.90;;;;;;5083622;28;20113;-71
2023/09/09 08:02:33;;;;;;;27.40;17.35;;;20.20;99.90;;;;;;5091523;28;20476;-71
2023/09/09 08:04:59;;;;;;;28.85;17.42;;;20.30;99.90;;;;;;5089054;28;20154;-71
2023/09/09 08:07:24;;;;;;;25.20;16.40;;;20.50;99.90;;;;;;5086795;28;20469;-72
2023/09/09 08:09:50;;;;;;;28.77;17.17;;;20.70;99.90;;;;;;5103041;28;20095;-71
2023/09/09 08:12:15;;;;;;;29.65;16.73;;;20.80;99.90;;;;;;5084889;28;20024;-70
2023/09/09 08:14:44;;;;;;;25.23;16.55;;;21.00;99.90;;;;;;5085792;28;20400;-70
2023/09/09 08:17:09;;;;;;;25.30;16.27;;;21.20;99.90;;;;;;5088838;28;20036;-70
2023/09/09 08:19:35;;;;;;;26.58;15.90;;;21.30;99.90;;;;;;5087432;28;20488;-71
2023/09/09 08:22:01;;;;;;;25.80;16.50;;;21.50;99.90;;;;;;5086965;28;20051;-70
2023/09/09 08:24:26;;;;;;;26.15;15.77;;;21.70;99.90;;;;;;5086293;28;20043;-71
2023/09/09 08:26:52;;;;;;;25.58;16.63;;;21.90;99.90;;;;;;5086588;28;20039;-70
2023/09/09 08:29:17;;;;;;;25.92;16.95;;;22.00;99.90;;;;;;5087562;28;20518;-70
2023/09/09 08:31:47;;;;;;;24.20;16.33;;;22.20;99.90;;;;;;5073501;28;20504;-71
2023/09/09 08:34:12;;;;;;;25.17;15.15;;;22.40;99.90;;;;;;5081634;28;20028;-70
2023/09/09 08:36:38;;;;;;;27.23;16.90;;;22.50;99.90;;;;;;5087900;28;20024;-70
2023/09/09 08:39:04;;;;;;;26.70;16.35;;;22.60;99.90;;;;;;5088441;28;20024;-70
2023/09/09 08:41:40;;;;;;;23.65;14.93;;;22.70;99.90;;;;;;5083093;28;20044;-70
2023/09/09 08:44:36;;;;;;;28.63;14.95;;;22.90;99.90;;;;;;5085748;28;20043;-70
2023/09/09 08:47:01;;;;;;;24.58;15.80;;;23.00;99.90;;;;;;5089497;28;20044;-70
2023/09/09 08:49:31;;;;;;;26.13;15.80;;;23.20;99.90;;;;;;5085109;28;20161;-71
2023/09/09 08:52:09;;;;;;;27.38;15.52;;;23.20;99.90;;;;;;5088882;28;20503;-71
2023/09/09 08:54:35;;;;;;;21.40;15.68;;;23.40;99.90;;;;;;5087359;28;20574;-71
2023/09/09 08:57:02;;;;;;;24.30;15.98;;;23.60;99.90;;;;;;5088580;28;20036;-70
2023/09/09 08:59:31;;;;;;;28.05;15.77;;;23.70;99.90;;;;;;5085870;28;20101;-71
2023/09/09 09:01:58;;;;;;;27.20;16.02;;;23.80;99.90;;;;;;5091306;28;20040;-71
2023/09/09 09:04:26;;;;;;;23.70;15.20;;;23.90;99.90;;;;;;5086092;28;20024;-71
2023/09/09 09:06:52;;;;;;;25.88;15.80;;;24.10;99.90;;;;;;5087105;28;20032;-71
2023/09/09 09:09:19;;;;;;;26.95;15.25;;;24.20;99.90;;;;;;5087219;28;20031;-71
2023/09/09 09:11:45;;;;;;;28.35;15.43;;;24.30;99.90;;;;;;5083521;28;20047;-70
2023/09/09 09:14:10;;;;;;;35.25;15.52;;;24.50;99.90;;;;;;5087679;28;20475;-71
2023/09/09 09:16:39;;;;;;;28.95;16.30;;;24.50;99.90;;;;;;5085469;28;20032;-70
2023/09/09 09:19:05;;;;;;;24.52;14.73;;;24.60;99.90;;;;;;5087368;28;20043;-70
2023/09/09 09:21:35;;;;;;;22.77;14.75;;;24.80;99.90;;;;;;5085246;28;20142;-71
2023/09/09 09:24:02;;;;;;;22.23;13.98;;;24.90;99.90;;;;;;5088055;28;20032;-70
2023/09/09 09:26:29;;;;;;;26.45;15.45;;;25.00;99.90;;;;;;5084874;28;20043;-73
2023/09/09 09:28:55;;;;;;;30.42;15.43;;;25.10;99.90;;;;;;5068381;28;20380;-71
2023/09/09 09:31:25;;;;;;;24.63;15.35;;;25.20;99.90;;;;;;5102031;28;20039;-71
2023/09/09 09:33:52;;;;;;;25.42;14.98;;;25.30;99.90;;;;;;5090111;28;20024;-71
2023/09/09 09:36:20;;;;;;;21.50;14.82;;;25.40;99.90;;;;;;5091588;28;20111;-71
2023/09/09 09:38:47;;;;;;;25.15;15.05;;;25.50;99.90;;;;;;5089361;28;20039;-71
2023/09/09 09:41:14;;;;;;;24.25;15.02;;;25.60;99.90;;;;;;5091245;28;20036;-71
2023/09/09 09:43:39;;;;;;;20.27;14.18;;;25.70;99.90;;;;;;5087329;28;20431;-71
2023/09/09 09:46:17;;;;;;;20.90;14.57;;;25.80;99.90;;;;;;5090138;28;20039;-72
2023/09/09 09:48:43;;;;;;;19.08;14.15;;;25.90;99.90;;;;;;5089946;28;20044;-71
2023/09/09 09:51:09;;;;;;;24.83;12.52;;;25.90;99.90;;;;;;5091087;28;20051;-71
2023/09/09 09:53:51;;;;;;;26.00;13.88;;;25.90;99.90;;;;;;5090874;28;20044;-72
2023/09/09 09:56:18;;;;;;;21.80;13.45;;;26.00;99.90;;;;;;5089255;28;20024;-71
2023/09/09 09:58:45;;;;;;;26.10;14.18;;;26.10;99.90;;;;;;5071527;28;20156;-71
2023/09/09 10:01:11;;;;;;;25.83;14.63;;;26.20;99.90;;;;;;5089063;28;20492;-71
2023/09/09 10:03:48;;;;;;;22.92;13.00;;;26.30;99.90;;;;;;5087870;28;20027;-71
2023/09/09 10:06:23;;;;;;;18.67;12.63;;;26.30;99.90;;;;;;5086816;28;20073;-71
2023/09/09 10:09:00;;;;;;;25.35;13.63;;;26.40;99.90;;;;;;5087272;28;20078;-71
2023/09/09 10:11:31;;;;;;;20.08;12.57;;;26.60;99.90;;;;;;5091913;28;20107;-71
2023/09/09 10:14:16;;;;;;;21.30;13.27;;;26.70;99.90;;;;;;5095878;28;20482;-71
2023/09/09 10:16:42;;;;;;;17.85;12.15;;;26.80;99.90;;;;;;5094185;28;20028;-71
2023/09/09 10:19:11;;;;;;;17.50;13.05;;;27.00;99.90;;;;;;5090427;28;20111;-71
2023/09/09 10:21:37;;;;;;;23.67;12.50;;;27.20;99.90;;;;;;5073302;28;20039;-71
2023/09/09 10:24:05;;;;;;;20.40;13.25;;;27.20;99.90;;;;;;5086683;28;20051;-71
2023/09/09 10:26:32;;;;;;;17.92;13.20;;;27.20;99.90;;;;;;5090682;28;20042;-71
2023/09/09 10:28:59;;;;;;;28.17;12.88;;;27.10;99.90;;;;;;5087918;28;20032;-70
2023/09/09 10:31:28;;;;;;;22.20;12.20;;;27.10;99.90;;;;;;5089314;28;20024;-70
2023/09/09 10:33:55;;;;;;;15.38;11.48;;;27.30;99.90;;;;;;5086458;28;20941;-70
2023/09/09 10:36:21;;;;;;;16.33;12.00;;;27.60;99.90;;;;;;5088963;28;20058;-71
2023/09/09 10:38:48;;;;;;;15.60;12.40;;;27.70;99.90;;;;;;5072966;28;20028;-70
2023/09/09 10:41:15;;;;;;;17.98;12.35;;;27.60;99.90;;;;;;5078530;28;20119;-71
2023/09/09 10:43:41;;;;;;;23.92;12.70;;;27.50;99.90;;;;;;5079151;28;20035;-70
2023/09/09 10:46:08;;;;;;;19.40;11.48;;;27.60;99.90;;;;;;5089156;28;20395;-70
2023/09/09 10:48:34;;;;;;;20.98;13.43;;;27.80;99.90;;;;;;5087019;28;20135;-73
2023/09/09 10:51:05;;;;;;;19.45;12.32;;;27.80;99.90;;;;;;5088990;28;20127;-71
2023/09/09 10:53:31;;;;;;;15.68;11.38;;;27.80;99.90;;;;;;5089277;28;20059;-70
2023/09/09 10:55:59;;;;;;;17.35;11.20;;;27.90;99.90;;;;;;5090009;28;20028;-70
2023/09/09 10:58:33;;;;;;;18.70;12.48;;;28.20;99.90;;;;;;5092504;28;20032;-70
2023/09/09 11:01:00;;;;;;;17.77;11.77;;;28.20;99.90;;;;;;5088419;28;20480;-70
2023/09/09 11:03:36;;;;;;;20.35;11.75;;;28.30;99.90;;;;;;5087613;28;20031;-70
2023/09/09 11:06:10;;;;;;;16.60;11.35;;;28.30;99.90;;;;;;5089319;28;20031;-71
2023/09/09 11:08:46;;;;;;;18.70;11.15;;;28.50;99.90;;;;;;5089045;28;20028;-72
2023/09/09 11:11:26;;;;;;;23.80;11.38;;;28.80;99.90;;;;;;5088937;28;20040;-70
2023/09/09 11:13:54;;;;;;;15.70;11.35;;;29.10;99.90;;;;;;5070422;28;20035;-71
2023/09/09 11:16:27;;;;;;;20.45;12.05;;;29.10;99.90;;;;;;5088623;28;20050;-70
2023/09/09 11:18:53;;;;;;;15.75;10.82;;;28.90;99.90;;;;;;5086911;28;20233;-71
2023/09/09 11:21:22;;;;;;;23.90;11.10;;;29.00;99.90;;;;;;5088955;28;20040;-72
2023/09/09 11:23:49;;;;;;;21.23;11.38;;;29.00;99.90;;;;;;5071842;28;20024;-72
2023/09/09 11:26:15;;;;;;;16.70;11.23;;;28.90;99.90;;;;;;5070177;28;20542;-69
2023/09/09 11:28:44;;;;;;;13.57;10.25;;;29.00;99.90;;;;;;5068177;28;20032;-71
2023/09/09 11:31:14;;;;;;;22.45;11.20;;;29.20;99.90;;;;;;5085755;28;20036;-71
2023/09/09 11:33:39;;;;;;;19.48;10.30;;;29.50;99.90;;;;;;5083075;28;20027;-70
2023/09/09 11:36:05;;;;;;;13.32;10.77;;;29.50;99.90;;;;;;5090056;28;20153;-71
2023/09/09 11:38:32;;;;;;;18.08;10.75;;;29.80;99.90;;;;;;5088742;28;20032;-70
2023/09/09 11:40:57;;;;;;;14.18;10.70;;;29.80;99.90;;;;;;5087348;28;20024;-70
2023/09/09 11:43:23;;;;;;;17.05;9.90;;;29.60;99.90;;;;;;5075456;28;20032;-70
2023/09/09 11:45:51;;;;;;;15.10;10.20;;;29.60;99.90;;;;;;5077015;28;20077;-71
2023/09/09 11:48:16;;;;;;;15.77;10.57;;;29.70;99.90;;;;;;5086004;28;20500;-70
2023/09/09 11:50:45;;;;;;;16.23;10.75;;;29.30;99.90;;;;;;5088524;28;20034;-70
2023/09/09 11:53:12;;;;;;;18.00;10.43;;;29.20;99.90;;;;;;5076855;28;20078;-70
2023/09/09 11:55:38;;;;;;;15.02;10.02;;;29.20;99.90;;;;;;5077372;28;20024;-71
2023/09/09 11:58:06;;;;;;;22.52;9.77;;;29.40;99.90;;;;;;5087684;28;20135;-70
2023/09/09 12:00:32;;;;;;;18.42;9.35;;;29.50;99.90;;;;;;5086470;28;20146;-70
2023/09/09 12:02:57;;;;;;;23.13;9.23;;;29.70;99.90;;;;;;5084114;28;20028;-70
2023/09/09 12:05:29;;;;;;;21.67;8.40;;;30.00;99.90;;;;;;5087073;28;20368;-70
2023/09/09 12:07:59;;;;;;;14.38;8.43;;;29.80;99.90;;;;;;5087673;28;20360;-72
2023/09/09 12:10:35;;;;;;;14.85;8.05;;;29.90;99.90;;;;;;5089307;28;20051;-71
2023/09/09 12:13:01;;;;;;;12.18;7.75;;;30.30;99.30;;;;;;5083709;28;20377;-71
2023/09/09 12:15:27;;;;;;;15.77;8.40;;;30.40;99.40;;;;;;5085689;28;20059;-71
2023/09/09 12:17:53;;;;;;;34.10;9.57;;;30.50;99.90;;;;;;5078475;28;20023;-70
2023/09/09 12:20:19;;;;;;;10.45;7.13;;;30.90;99.90;;;;;;5081845;28;20747;-71
2023/09/09 12:22:52;;;;;;;14.52;7.25;;;31.20;98.00;;;;;;5093712;28;20028;-70
2023/09/09 12:25:31;;;;;;;25.60;7.60;;;30.90;96.50;;;;;;5083498;28;20032;-70